createdAt,value
2023-02-08T00:01:08.531Z,11.17
2023-02-08T00:03:36.809Z,11.20
2023-02-08T00:06:05.163Z,12.33
2023-02-08T00:08:33.618Z,12.80
2023-02-08T00:11:01.806Z,11.10
2023-02-08T00:13:31.068Z,10.60
2023-02-08T00:15:59.180Z,11.43
2023-02-08T00:18:27.412Z,10.73
2023-02-08T00:20:57.284Z,10.60
2023-02-08T00:23:25.712Z,10.43
2023-02-08T00:25:53.761Z,12.60
2023-02-08T00:28:21.872Z,9.20
2023-02-08T00:30:51.278Z,10.73
2023-02-08T00:33:19.295Z,11.20
2023-02-08T00:35:47.226Z,11.27
2023-02-08T00:38:15.319Z,12.00
2023-02-08T00:40:43.627Z,10.93
2023-02-08T00:43:11.660Z,11.37
2023-02-08T00:45:39.593Z,10.60
2023-02-08T00:48:08.856Z,11.40
2023-02-08T00:50:36.840Z,11.70
2023-02-08T00:53:04.943Z,11.97
2023-02-08T00:55:32.905Z,12.20
2023-02-08T00:58:00.837Z,11.70
2023-02-08T01:00:28.835Z,11.90
2023-02-08T01:02:56.770Z,11.00
2023-02-08T01:05:26.061Z,12.13
2023-02-08T01:07:53.953Z,10.87
2023-02-08T01:10:21.905Z,11.87
2023-02-08T01:12:49.910Z,11.60
2023-02-08T01:15:17.943Z,11.80
2023-02-08T01:17:45.872Z,12.53
2023-02-08T01:20:13.787Z,12.93
2023-02-08T01:22:43.144Z,12.80
2023-02-08T01:25:11.295Z,12.00
2023-02-08T01:27:39.220Z,9.20
2023-02-08T01:30:08.609Z,9.60
2023-02-08T01:32:36.603Z,9.50
2023-02-08T01:35:04.724Z,10.00
2023-02-08T01:37:32.684Z,13.20
2023-02-08T01:40:01.976Z,12.43
2023-02-08T01:42:29.929Z,10.50
2023-02-08T01:45:24.343Z,12.20
2023-02-08T01:47:56.173Z,11.93
2023-02-08T01:50:30.176Z,11.00
2023-02-08T01:52:58.400Z,11.03
2023-02-08T01:55:31.162Z,11.10
2023-02-08T01:58:03.616Z,10.60
2023-02-08T02:00:33.050Z,11.27
2023-02-08T02:03:02.832Z,11.63
2023-02-08T02:05:36.500Z,11.73
2023-02-08T02:08:05.602Z,10.57
2023-02-08T02:10:38.274Z,10.13
2023-02-08T02:13:09.512Z,10.00
2023-02-08T02:15:37.473Z,10.83
2023-02-08T02:18:08.058Z,10.47
2023-02-08T02:21:09.665Z,11.00
2023-02-08T02:24:16.211Z,9.00
2023-02-08T02:27:05.394Z,9.80
2023-02-08T02:30:08.137Z,9.10
2023-02-08T02:33:01.080Z,10.40
2023-02-08T02:35:39.451Z,9.97
2023-02-08T02:38:14.685Z,7.77
2023-02-08T02:40:52.850Z,9.10
2023-02-08T02:43:44.835Z,9.63
2023-02-08T02:46:22.762Z,9.80
2023-02-08T02:48:59.325Z,9.00
2023-02-08T02:51:34.008Z,8.33
2023-02-08T02:54:08.060Z,9.57
2023-02-08T02:56:40.345Z,8.20
2023-02-08T02:59:12.036Z,8.83
2023-02-08T03:01:40.573Z,9.80
2023-02-08T03:04:17.916Z,9.03
2023-02-08T03:06:59.388Z,9.13
2023-02-08T03:09:41.586Z,8.47
2023-02-08T03:12:27.673Z,10.00
2023-02-08T03:15:04.712Z,11.53
2023-02-08T03:17:46.193Z,9.00
2023-02-08T03:20:19.367Z,8.60
2023-02-08T03:22:59.765Z,9.17
2023-02-08T03:25:34.350Z,8.53
2023-02-08T03:28:06.937Z,9.63
2023-02-08T03:30:46.069Z,10.23
2023-02-08T03:33:16.614Z,7.63
2023-02-08T03:35:49.980Z,9.03
2023-02-08T03:38:23.958Z,9.80
2023-02-08T03:40:55.053Z,9.70
2023-02-08T03:43:27.866Z,12.17
2023-02-08T03:46:01.538Z,10.23
2023-02-08T03:48:30.867Z,10.00
2023-02-08T03:51:03.432Z,11.73
2023-02-08T03:53:38.383Z,13.10
2023-02-08T03:56:11.996Z,11.37
2023-02-08T03:58:45.055Z,10.80
2023-02-08T04:01:19.212Z,10.70
2023-02-08T04:03:50.230Z,11.47
2023-02-08T04:06:19.884Z,12.03
2023-02-08T04:08:50.705Z,13.47
2023-02-08T04:11:19.608Z,11.73
2023-02-08T04:13:47.930Z,11.40
2023-02-08T04:16:16.125Z,10.87
2023-02-08T04:18:44.189Z,11.57
2023-02-08T04:21:12.391Z,11.30
2023-02-08T04:23:42.015Z,10.70
2023-02-08T04:26:10.198Z,11.03
2023-02-08T04:28:38.292Z,10.27
2023-02-08T04:31:06.779Z,11.63
2023-02-08T04:33:34.835Z,10.90
2023-02-08T04:36:03.024Z,10.73
2023-02-08T04:38:30.975Z,10.03
2023-02-08T04:41:00.399Z,10.40
2023-02-08T04:43:28.913Z,9.80
2023-02-08T04:45:57.873Z,10.20
2023-02-08T04:48:26.017Z,9.77
2023-02-08T04:50:56.478Z,10.07
2023-02-08T04:53:24.713Z,10.73
2023-02-08T04:55:53.022Z,10.10
2023-02-08T04:58:22.499Z,8.67
2023-02-08T05:00:50.594Z,10.93
2023-02-08T05:03:18.687Z,9.20
2023-02-08T05:05:46.708Z,9.33
2023-02-08T05:08:14.680Z,10.37
2023-02-08T05:10:46.299Z,10.20
2023-02-08T05:13:14.339Z,9.57
2023-02-08T05:15:43.778Z,10.03
2023-02-08T05:18:11.773Z,10.37
2023-02-08T05:20:40.039Z,9.00
2023-02-08T05:23:08.306Z,10.50
2023-02-08T05:25:36.376Z,10.40
2023-02-08T05:28:04.652Z,10.23
2023-02-08T05:30:32.633Z,9.57
2023-02-08T05:33:02.058Z,9.80
2023-02-08T05:35:30.089Z,11.00
2023-02-08T05:37:58.267Z,9.50
2023-02-08T05:40:26.386Z,9.10
2023-02-08T05:42:54.454Z,8.17
2023-02-08T05:45:22.676Z,9.70
2023-02-08T05:47:50.775Z,9.87
2023-02-08T05:50:20.292Z,9.87
2023-02-08T05:52:48.301Z,10.80
2023-02-08T05:55:16.547Z,10.60
2023-02-08T05:58:01.862Z,12.13
2023-02-08T06:00:29.851Z,11.43
2023-02-08T06:03:01.662Z,11.20
2023-02-08T06:05:29.812Z,11.57
2023-02-08T06:07:57.830Z,10.77
2023-02-08T06:10:25.982Z,11.13
2023-02-08T06:12:54.190Z,11.43
2023-02-08T06:15:23.779Z,11.80
2023-02-08T06:17:52.638Z,10.83
2023-02-08T06:20:20.875Z,11.70
2023-02-08T06:22:48.942Z,12.40
2023-02-08T06:25:17.431Z,10.90
2023-02-08T06:27:45.483Z,11.17
2023-02-08T06:30:14.259Z,10.50
2023-02-08T06:32:43.851Z,10.70
2023-02-08T06:35:13.612Z,12.00
2023-02-08T06:37:41.864Z,10.93
2023-02-08T06:40:10.713Z,8.63
2023-02-08T06:42:38.814Z,12.87
2023-02-08T06:45:11.013Z,10.23
2023-02-08T06:47:40.184Z,8.80
2023-02-08T06:50:10.182Z,11.80
2023-02-08T06:52:38.654Z,11.03
2023-02-08T06:55:07.567Z,11.60
2023-02-08T06:57:35.634Z,12.23
2023-02-08T07:00:04.218Z,11.53
2023-02-08T07:02:32.431Z,13.50
2023-02-08T07:05:00.598Z,13.60
2023-02-08T07:07:30.147Z,12.60
2023-02-08T07:09:58.243Z,12.60
2023-02-08T07:12:26.361Z,12.70
2023-02-08T07:14:54.878Z,12.80
2023-02-08T07:17:24.491Z,13.30
2023-02-08T07:19:52.648Z,13.47
2023-02-08T07:22:20.663Z,14.70
2023-02-08T07:24:50.207Z,20.57
2023-02-08T07:27:18.527Z,14.63
2023-02-08T07:29:46.809Z,14.50
2023-02-08T07:32:15.387Z,14.07
2023-02-08T07:34:44.179Z,13.40
2023-02-08T07:37:12.589Z,14.03
2023-02-08T07:39:40.922Z,13.80
2023-02-08T07:42:11.321Z,15.60
2023-02-08T07:44:40.243Z,15.70
2023-02-08T07:47:08.825Z,16.53
2023-02-08T07:49:37.086Z,15.23
2023-02-08T07:52:05.542Z,14.83
2023-02-08T07:54:33.545Z,15.00
2023-02-08T07:57:03.563Z,13.40
2023-02-08T07:59:33.483Z,13.73
2023-02-08T08:02:01.943Z,15.57
2023-02-08T08:04:30.376Z,14.33
2023-02-08T08:06:59.340Z,13.60
2023-02-08T08:09:27.686Z,13.73
2023-02-08T08:11:56.005Z,13.10
2023-02-08T08:14:24.394Z,16.60
2023-02-08T08:16:54.415Z,15.10
2023-02-08T08:19:22.718Z,15.83
2023-02-08T08:21:51.010Z,14.80
2023-02-08T08:24:19.115Z,12.40
2023-02-08T08:26:47.498Z,14.00
2023-02-08T08:29:15.634Z,14.10
2023-02-08T08:31:44.572Z,13.70
2023-02-08T08:34:14.402Z,10.23
2023-02-08T08:36:42.840Z,12.90
2023-02-08T08:39:11.153Z,13.30
2023-02-08T08:41:39.250Z,12.70
2023-02-08T08:44:07.468Z,13.53
2023-02-08T08:46:35.764Z,12.93
2023-02-08T08:49:12.831Z,14.50
2023-02-08T08:51:42.578Z,14.90
2023-02-08T08:54:11.337Z,13.87
2023-02-08T08:56:39.599Z,13.00
2023-02-08T08:59:07.817Z,14.27
2023-02-08T09:01:36.304Z,14.20
2023-02-08T09:04:05.041Z,14.30
2023-02-08T09:06:33.584Z,15.40
2023-02-08T09:09:03.904Z,15.77
2023-02-08T09:11:33.512Z,14.77
2023-02-08T09:14:04.706Z,14.80
2023-02-08T09:16:33.708Z,14.73
2023-02-08T09:19:02.701Z,12.80
2023-02-08T09:21:31.108Z,13.43
2023-02-08T09:23:59.489Z,13.47
2023-02-08T09:26:29.522Z,13.13
2023-02-08T09:28:57.914Z,13.70
2023-02-08T09:31:28.634Z,13.43
2023-02-08T09:33:58.731Z,12.33
2023-02-08T09:36:29.913Z,13.47
2023-02-08T09:39:01.124Z,14.30
2023-02-08T09:42:02.235Z,16.47
2023-02-08T09:44:37.580Z,13.50
2023-02-08T09:47:12.564Z,13.43
2023-02-08T09:49:45.131Z,14.13
2023-02-08T09:52:17.261Z,12.73
2023-02-08T09:54:51.818Z,14.77
2023-02-08T09:57:36.277Z,13.70
2023-02-08T10:00:09.252Z,12.87
2023-02-08T10:02:37.841Z,12.17
2023-02-08T10:05:09.205Z,13.90
2023-02-08T10:07:38.908Z,12.10
2023-02-08T10:10:13.244Z,14.10
2023-02-08T10:12:49.605Z,12.67
2023-02-08T10:15:27.567Z,12.73
2023-02-08T10:18:09.849Z,13.70
2023-02-08T10:21:01.615Z,12.77
2023-02-08T10:23:45.278Z,12.67
2023-02-08T10:26:23.073Z,12.70
2023-02-08T10:29:36.468Z,13.07
2023-02-08T10:32:20.232Z,12.67
2023-02-08T10:34:52.745Z,12.80
2023-02-08T10:37:25.831Z,11.40
2023-02-08T10:39:55.816Z,11.53
2023-02-08T10:42:29.597Z,12.73
2023-02-08T10:45:22.534Z,12.30
2023-02-08T10:47:55.827Z,12.67
2023-02-08T10:50:30.902Z,12.77
2023-02-08T10:52:59.481Z,12.23
2023-02-08T10:55:28.658Z,11.27
2023-02-08T10:58:00.917Z,10.80
2023-02-08T11:00:33.408Z,11.60
2023-02-08T11:03:14.172Z,11.03
2023-02-08T11:05:52.714Z,11.27
2023-02-08T11:08:23.029Z,10.60
2023-02-08T11:11:00.628Z,10.30
2023-02-08T11:13:36.535Z,10.50
2023-02-08T11:16:08.823Z,11.47
2023-02-08T11:18:40.498Z,9.17
2023-02-08T11:21:12.056Z,10.13
2023-02-08T11:23:43.457Z,10.73
2023-02-08T11:26:18.957Z,9.20
2023-02-08T11:29:01.381Z,10.47
2023-02-08T11:31:32.699Z,10.90
2023-02-08T11:34:03.194Z,9.83
2023-02-08T11:36:33.639Z,10.87
2023-02-08T11:39:04.328Z,9.83
2023-02-08T11:41:32.717Z,9.30
2023-02-08T11:44:04.590Z,9.97
2023-02-08T11:46:37.345Z,9.47
2023-02-08T11:49:05.888Z,8.70
2023-02-08T11:51:36.173Z,7.20
2023-02-08T11:54:06.473Z,11.47
2023-02-08T11:56:36.402Z,12.33
2023-02-08T11:59:17.558Z,8.40
2023-02-08T12:01:47.176Z,6.03
2023-02-08T12:04:17.065Z,7.30
2023-02-08T12:07:13.860Z,8.43
2023-02-08T12:10:14.321Z,8.10
2023-02-08T12:12:56.287Z,10.10
2023-02-08T12:15:40.223Z,8.57
2023-02-08T12:18:45.401Z,6.87
2023-02-08T12:21:19.073Z,11.33
2023-02-08T12:23:54.122Z,8.93
2023-02-08T12:26:35.556Z,8.60
2023-02-08T12:29:23.410Z,10.60
2023-02-08T12:32:02.052Z,8.57
2023-02-08T12:34:52.075Z,9.60
2023-02-08T12:37:46.038Z,8.37
2023-02-08T12:40:44.129Z,9.03
2023-02-08T12:43:25.726Z,10.60
2023-02-08T12:46:17.076Z,11.00
2023-02-08T12:49:09.390Z,9.73
2023-02-08T12:51:48.728Z,9.33
2023-02-08T12:54:24.325Z,8.80
2023-02-08T12:57:02.047Z,10.60
2023-02-08T12:59:37.056Z,10.30
2023-02-08T13:02:14.955Z,11.23
2023-02-08T13:04:47.437Z,9.10
2023-02-08T13:07:22.596Z,10.93
2023-02-08T13:09:58.114Z,9.67
2023-02-08T13:12:30.979Z,9.80
2023-02-08T13:15:04.635Z,10.93
2023-02-08T13:17:43.305Z,10.97
2023-02-08T13:20:25.529Z,8.73
2023-02-08T13:23:01.167Z,7.23
2023-02-08T13:25:32.737Z,8.50
2023-02-08T13:28:05.606Z,7.60
2023-02-08T13:30:39.579Z,7.30
2023-02-08T13:33:16.279Z,7.80
2023-02-08T13:35:49.964Z,7.50
2023-02-08T13:38:27.260Z,8.23
2023-02-08T13:41:09.229Z,7.33
2023-02-08T13:43:41.426Z,8.90
2023-02-08T13:46:11.708Z,8.57
2023-02-08T13:48:46.120Z,10.20
2023-02-08T13:51:52.909Z,8.10
2023-02-08T13:54:25.491Z,8.30
2023-02-08T13:56:54.401Z,7.10
2023-02-08T13:59:36.134Z,9.00
2023-02-08T14:02:27.583Z,9.33
2023-02-08T14:05:14.521Z,6.10
2023-02-08T14:07:46.143Z,9.97
2023-02-08T14:10:31.912Z,8.33
2023-02-08T14:13:05.025Z,9.97
2023-02-08T14:15:36.871Z,9.73
2023-02-08T14:18:20.000Z,9.83
2023-02-08T14:21:01.793Z,9.97
2023-02-08T14:23:32.660Z,9.33
2023-02-08T14:26:09.625Z,7.60
2023-02-08T14:28:42.974Z,10.47
2023-02-08T14:31:13.716Z,9.63
2023-02-08T14:33:45.065Z,11.00
2023-02-08T14:36:28.144Z,11.53
2023-02-08T14:39:24.677Z,11.70
2023-02-08T14:42:00.281Z,9.33
2023-02-08T14:44:58.425Z,11.17
2023-02-08T14:48:04.637Z,12.17
2023-02-08T14:50:55.949Z,11.40
2023-02-08T14:53:32.031Z,10.80
2023-02-08T14:56:04.928Z,10.67
2023-02-08T14:58:37.787Z,9.50
2023-02-08T15:01:13.537Z,8.10
2023-02-08T15:03:43.573Z,10.30
2023-02-08T15:07:01.898Z,10.53
2023-02-08T15:09:32.774Z,8.83
2023-02-08T15:12:04.069Z,12.27
2023-02-08T15:14:37.565Z,10.03
2023-02-08T15:17:07.657Z,8.93
2023-02-08T15:19:39.094Z,8.80
2023-02-08T15:22:29.662Z,9.20
2023-02-08T15:25:01.768Z,9.97
2023-02-08T15:27:32.790Z,9.20
2023-02-08T15:30:02.942Z,10.30
2023-02-08T15:32:31.734Z,8.53
2023-02-08T15:35:02.991Z,9.93
2023-02-08T15:37:34.192Z,11.47
2023-02-08T15:40:03.344Z,11.17
2023-02-08T15:42:35.040Z,9.97
2023-02-08T15:45:05.509Z,10.73
2023-02-08T15:47:36.047Z,12.70
2023-02-08T15:50:06.445Z,7.37
2023-02-08T15:52:37.301Z,10.33
2023-02-08T15:55:08.165Z,10.60
2023-02-08T15:57:40.425Z,10.93
2023-02-08T16:00:16.642Z,11.30
2023-02-08T16:02:45.102Z,9.93
2023-02-08T16:05:20.941Z,11.83
2023-02-08T16:07:49.515Z,12.10
2023-02-08T16:10:26.543Z,9.37
2023-02-08T16:12:57.301Z,11.07
2023-02-08T16:15:45.110Z,11.20
2023-02-08T16:18:35.801Z,10.53
2023-02-08T16:21:06.221Z,11.70
2023-02-08T16:23:35.417Z,11.23
2023-02-08T16:26:16.840Z,10.97
2023-02-08T16:28:45.037Z,10.47
2023-02-08T16:31:20.461Z,10.73
2023-02-08T16:33:48.501Z,9.33
2023-02-08T16:36:24.191Z,8.23
2023-02-08T16:39:23.051Z,11.40
2023-02-08T16:42:15.183Z,10.10
2023-02-08T16:45:03.916Z,9.57
2023-02-08T16:47:39.404Z,9.40
2023-02-08T16:50:09.381Z,9.83
2023-02-08T16:52:37.691Z,6.70
2023-02-08T16:55:06.779Z,10.50
2023-02-08T16:57:45.604Z,7.93
2023-02-08T17:00:21.405Z,6.40
2023-02-08T17:02:51.890Z,10.77
2023-02-08T17:05:21.301Z,9.07
2023-02-08T17:07:50.120Z,9.33
2023-02-08T17:10:26.065Z,11.70
2023-02-08T17:13:07.029Z,11.07
2023-02-08T17:15:44.639Z,9.57
2023-02-08T17:18:14.636Z,11.37
2023-02-08T17:20:42.811Z,10.70
2023-02-08T17:23:10.976Z,11.17
2023-02-08T17:25:39.161Z,9.70
2023-02-08T17:28:09.178Z,11.13
2023-02-08T17:30:39.874Z,9.23
2023-02-08T17:33:10.184Z,10.37
2023-02-08T17:35:39.522Z,12.07
2023-02-08T17:38:07.696Z,9.97
2023-02-08T17:40:37.605Z,10.20
2023-02-08T17:43:07.777Z,11.67
2023-02-08T17:45:40.464Z,12.50
2023-02-08T17:48:09.403Z,11.47
2023-02-08T17:50:42.238Z,12.70
2023-02-08T17:53:10.535Z,11.00
2023-02-08T17:55:39.069Z,12.30
2023-02-08T17:58:07.114Z,11.87
2023-02-08T18:00:35.325Z,10.93
2023-02-08T18:03:04.081Z,11.33
2023-02-08T18:05:32.307Z,10.70
2023-02-08T18:08:01.719Z,11.10
2023-02-08T18:10:29.720Z,9.70
2023-02-08T18:12:57.804Z,10.07
2023-02-08T18:15:26.023Z,10.93
2023-02-08T18:17:54.266Z,9.67
2023-02-08T18:20:22.530Z,12.00
2023-02-08T18:22:50.519Z,11.50
2023-02-08T18:25:20.600Z,11.07
2023-02-08T18:27:48.694Z,11.80
2023-02-08T18:30:17.264Z,11.73
2023-02-08T18:32:46.020Z,12.20
2023-02-08T18:35:14.163Z,11.30
2023-02-08T18:37:42.496Z,11.47
2023-02-08T18:40:12.457Z,12.33
2023-02-08T18:42:41.805Z,10.20
2023-02-08T18:45:10.918Z,10.93
2023-02-08T18:47:39.892Z,11.60
2023-02-08T18:50:09.206Z,10.10
2023-02-08T18:52:37.434Z,10.47
2023-02-08T18:55:06.296Z,11.80
2023-02-08T18:57:38.762Z,9.13
2023-02-08T19:00:09.470Z,12.53
2023-02-08T19:02:39.534Z,11.90
2023-02-08T19:05:08.185Z,11.00
2023-02-08T19:07:36.338Z,11.53
2023-02-08T19:10:04.552Z,13.03
2023-02-08T19:12:32.705Z,12.83
2023-02-08T19:15:01.176Z,12.23
2023-02-08T19:17:30.467Z,13.03
2023-02-08T19:19:58.725Z,13.10
2023-02-08T19:22:27.007Z,13.57
2023-02-08T19:24:55.513Z,11.33
2023-02-08T19:27:23.609Z,12.13
2023-02-08T19:29:56.190Z,12.07
2023-02-08T19:32:24.833Z,12.87
2023-02-08T19:34:54.361Z,13.43
2023-02-08T19:37:22.846Z,12.40
2023-02-08T19:39:51.350Z,10.80
2023-02-08T19:42:20.220Z,10.57
2023-02-08T19:44:48.388Z,12.20
2023-02-08T19:47:16.671Z,12.07
2023-02-08T19:49:45.131Z,13.30
2023-02-08T19:52:20.014Z,13.07
2023-02-08T19:54:51.081Z,12.87
2023-02-08T19:57:19.416Z,12.73
2023-02-08T19:59:47.666Z,11.60
2023-02-08T20:02:18.042Z,10.87
2023-02-08T20:04:46.520Z,11.17
2023-02-08T20:07:16.192Z,12.03
2023-02-08T20:09:44.595Z,12.27
2023-02-08T20:12:12.589Z,12.93
2023-02-08T20:14:40.804Z,12.60
2023-02-08T20:17:08.776Z,12.67
2023-02-08T20:19:38.000Z,9.43
2023-02-08T20:22:06.258Z,12.00
2023-02-08T20:24:35.635Z,12.10
2023-02-08T20:27:03.881Z,12.23
2023-02-08T20:29:32.831Z,12.13
2023-02-08T20:32:01.290Z,14.00
2023-02-08T20:34:30.001Z,10.53
2023-02-08T20:37:07.226Z,12.37
2023-02-08T20:39:38.521Z,14.00
2023-02-08T20:42:10.275Z,11.40
2023-02-08T20:44:38.277Z,10.50
2023-02-08T20:47:06.522Z,12.00
2023-02-08T20:49:34.609Z,13.03
2023-02-08T20:52:02.990Z,7.90
2023-02-08T20:54:34.593Z,12.30
2023-02-08T20:57:04.143Z,12.90
2023-02-08T20:59:32.538Z,10.00
2023-02-08T21:02:05.166Z,12.70
2023-02-08T21:04:36.758Z,11.57
2023-02-08T21:07:04.812Z,12.20
2023-02-08T21:09:35.043Z,11.67
2023-02-08T21:12:05.282Z,8.90
2023-02-08T21:14:33.360Z,10.80
2023-02-08T21:17:01.691Z,12.57
2023-02-08T21:19:31.680Z,11.20
2023-02-08T21:22:01.852Z,8.67
2023-02-08T21:24:30.883Z,11.80
2023-02-08T21:26:59.678Z,10.77
2023-02-08T21:29:32.540Z,13.23
2023-02-08T21:32:03.743Z,10.50
2023-02-08T21:34:31.776Z,14.60
2023-02-08T21:36:59.872Z,11.47
2023-02-08T21:39:28.039Z,6.10
2023-02-08T21:41:56.432Z,11.03
2023-02-08T21:44:33.116Z,10.37
2023-02-08T21:47:01.142Z,11.50
2023-02-08T21:49:46.886Z,12.53
2023-02-08T21:52:32.723Z,10.10
2023-02-08T21:55:00.983Z,11.83
2023-02-08T21:57:52.219Z,11.10
2023-02-08T22:00:23.023Z,11.40
2023-02-08T22:02:51.406Z,10.63
2023-02-08T22:08:01.865Z,11.77
2023-02-08T22:10:31.985Z,12.03
2023-02-08T22:13:01.034Z,11.77
2023-02-08T22:15:31.344Z,11.77
2023-02-08T22:18:01.495Z,11.97
2023-02-08T22:20:30.674Z,13.20
2023-02-08T22:22:59.147Z,12.43
2023-02-08T22:25:27.261Z,11.70
2023-02-08T22:27:55.707Z,12.33
2023-02-08T22:30:25.607Z,11.50
2023-02-08T22:32:55.445Z,11.57
2023-02-08T22:35:23.871Z,12.00
2023-02-08T22:37:52.186Z,11.47
2023-02-08T22:40:20.528Z,10.43
2023-02-08T22:42:48.924Z,6.13
2023-02-08T22:46:11.337Z,12.03
2023-02-08T22:49:18.303Z,10.50
2023-02-08T22:51:46.874Z,9.80
2023-02-08T22:54:15.269Z,12.27
2023-02-08T22:56:43.449Z,11.33
2023-02-08T22:59:11.779Z,9.90
2023-02-08T23:01:40.532Z,9.73
2023-02-08T23:04:10.407Z,10.67
2023-02-08T23:06:38.952Z,11.53
2023-02-08T23:09:08.115Z,10.07
2023-02-08T23:11:36.592Z,12.50
2023-02-08T23:14:04.575Z,9.77
2023-02-08T23:16:32.741Z,12.73
2023-02-08T23:19:00.855Z,18.10
2023-02-08T23:21:30.313Z,11.30
2023-02-08T23:23:58.721Z,8.70
2023-02-08T23:26:26.829Z,9.87
2023-02-08T23:28:55.446Z,9.20
2023-02-08T23:31:24.137Z,7.23
2023-02-08T23:33:52.303Z,7.93
2023-02-08T23:36:23.248Z,9.00
2023-02-08T23:38:53.131Z,8.53
2023-02-08T23:41:23.991Z,8.20
2023-02-08T23:43:53.439Z,5.50
2023-02-08T23:46:23.307Z,7.30
2023-02-08T23:48:52.231Z,8.60
2023-02-08T23:51:23.159Z,9.13
2023-02-08T23:53:54.471Z,9.53
2023-02-08T23:56:24.867Z,9.33
2023-02-08T23:58:55.583Z,8.90
